createdAt,value
2022-12-04T00:01:26.593Z,529.47
2022-12-04T00:03:55.441Z,530.87
2022-12-04T00:06:24.766Z,540.83
2022-12-04T00:08:53.294Z,685.57
2022-12-04T00:11:23.921Z,727.00
2022-12-04T00:13:52.086Z,1027.73
2022-12-04T00:16:22.614Z,506.33
2022-12-04T00:18:52.420Z,743.90
2022-12-04T00:21:21.988Z,318.17
2022-12-04T00:23:50.504Z,679.00
2022-12-04T00:26:20.195Z,1042.73
2022-12-04T00:28:49.277Z,453.23
2022-12-04T00:31:19.539Z,448.93
2022-12-04T00:33:48.039Z,491.23
2022-12-04T00:36:19.928Z,282.57
2022-12-04T00:38:48.725Z,409.87
2022-12-04T00:41:18.611Z,602.57
2022-12-04T00:43:46.872Z,653.70
2022-12-04T00:46:15.561Z,543.60
2022-12-04T00:48:43.657Z,418.47
2022-12-04T00:51:13.483Z,826.30
2022-12-04T00:53:43.077Z,357.40
2022-12-04T00:56:14.207Z,322.83
2022-12-04T00:58:42.833Z,521.10
2022-12-04T01:01:12.958Z,614.13
2022-12-04T01:03:41.360Z,619.40
2022-12-04T01:06:18.271Z,468.53
2022-12-04T01:08:48.188Z,566.70
2022-12-04T01:11:16.488Z,376.03
2022-12-04T01:13:44.637Z,231.40
2022-12-04T01:16:17.744Z,514.13
2022-12-04T01:18:45.757Z,432.17
2022-12-04T01:21:13.878Z,388.33
2022-12-04T01:23:41.820Z,534.57
2022-12-04T01:26:11.411Z,438.33
2022-12-04T01:28:39.591Z,889.93
2022-12-04T01:31:09.536Z,252.13
2022-12-04T01:33:38.707Z,730.97
2022-12-04T01:36:09.012Z,492.43
2022-12-04T01:38:37.784Z,522.33
2022-12-04T01:41:06.717Z,549.23
2022-12-04T01:43:37.955Z,358.13
2022-12-04T01:46:07.020Z,481.30
2022-12-04T01:48:38.776Z,470.50
2022-12-04T01:51:12.146Z,779.67
2022-12-04T01:53:45.471Z,600.43
2022-12-04T01:56:15.292Z,755.37
2022-12-04T01:58:49.944Z,476.03
2022-12-04T02:01:18.003Z,743.87
2022-12-04T02:03:46.108Z,714.20
2022-12-04T02:06:13.977Z,163.17
2022-12-04T02:08:42.208Z,476.00
2022-12-04T02:11:21.016Z,816.33
2022-12-04T02:14:01.682Z,652.50
2022-12-04T02:16:38.345Z,540.37
2022-12-04T02:19:25.508Z,300.80
2022-12-04T02:21:57.013Z,390.03
2022-12-04T02:24:49.982Z,1016.80
2022-12-04T02:27:36.137Z,485.43
2022-12-04T02:30:07.858Z,659.40
2022-12-04T02:32:43.366Z,361.93
2022-12-04T02:35:16.967Z,414.87
2022-12-04T02:37:48.212Z,327.20
2022-12-04T02:40:25.343Z,633.10
2022-12-04T02:42:59.439Z,889.27
2022-12-04T02:45:34.098Z,545.23
2022-12-04T02:48:05.974Z,371.00
2022-12-04T02:50:38.496Z,413.60
2022-12-04T02:53:11.623Z,265.23
2022-12-04T02:55:44.200Z,512.70
2022-12-04T02:58:17.619Z,283.07
2022-12-04T03:00:49.852Z,796.13
2022-12-04T03:03:21.269Z,501.17
2022-12-04T03:05:56.519Z,172.37
2022-12-04T03:08:28.837Z,370.97
2022-12-04T03:11:00.725Z,572.13
2022-12-04T03:13:35.844Z,379.07
2022-12-04T03:16:11.311Z,369.10
2022-12-04T03:18:43.238Z,795.80
2022-12-04T03:21:15.535Z,628.40
2022-12-04T03:23:47.725Z,746.53
2022-12-04T03:26:25.239Z,798.70
2022-12-04T03:28:58.757Z,424.97
2022-12-04T03:31:37.013Z,724.43
2022-12-04T03:34:07.165Z,647.90
2022-12-04T03:36:38.752Z,281.80
2022-12-04T03:39:14.015Z,740.40
2022-12-04T03:41:58.953Z,245.00
2022-12-04T03:44:31.000Z,360.30
2022-12-04T03:47:05.853Z,438.93
2022-12-04T03:49:43.563Z,641.00
2022-12-04T03:52:16.190Z,507.13
2022-12-04T03:54:48.474Z,364.67
2022-12-04T03:57:22.404Z,208.13
2022-12-04T03:59:56.065Z,361.37
2022-12-04T04:02:29.707Z,864.90
2022-12-04T04:05:01.164Z,368.10
2022-12-04T04:07:35.981Z,487.60
2022-12-04T04:10:09.218Z,444.87
2022-12-04T04:12:42.926Z,151.83
2022-12-04T04:15:32.757Z,564.30
2022-12-04T04:18:20.508Z,514.27
2022-12-04T04:21:11.541Z,351.07
2022-12-04T04:24:01.627Z,167.63
2022-12-04T04:26:35.732Z,267.53
2022-12-04T04:29:03.974Z,661.47
2022-12-04T04:31:39.301Z,520.97
2022-12-04T04:34:19.742Z,295.03
2022-12-04T04:36:55.199Z,563.57
2022-12-04T04:39:32.014Z,302.97
2022-12-04T04:42:05.904Z,450.13
2022-12-04T04:44:40.863Z,354.93
2022-12-04T04:47:13.006Z,229.77
2022-12-04T04:49:43.831Z,990.00
2022-12-04T04:52:11.829Z,625.23
2022-12-04T04:54:40.857Z,69.90
2022-12-04T04:57:08.789Z,449.13
2022-12-04T04:59:36.820Z,632.10
2022-12-04T05:02:05.365Z,319.23
2022-12-04T05:04:33.409Z,552.80
2022-12-04T05:07:02.712Z,649.97
2022-12-04T05:09:30.613Z,671.60
2022-12-04T05:11:58.520Z,640.97
2022-12-04T05:14:26.457Z,349.07
2022-12-04T05:16:56.790Z,630.97
2022-12-04T05:19:45.675Z,236.20
2022-12-04T05:22:14.972Z,449.37
2022-12-04T05:24:43.049Z,331.40
2022-12-04T05:27:11.081Z,777.93
2022-12-04T05:29:39.196Z,661.30
2022-12-04T05:32:07.252Z,986.03
2022-12-04T05:34:35.231Z,316.67
2022-12-04T05:37:03.516Z,592.40
2022-12-04T05:39:33.057Z,613.90
2022-12-04T05:42:01.061Z,222.10
2022-12-04T05:44:28.941Z,124.97
2022-12-04T05:46:56.906Z,388.93
2022-12-04T05:49:25.102Z,569.77
2022-12-04T05:51:53.067Z,238.83
2022-12-04T05:54:24.199Z,133.13
2022-12-04T05:56:54.963Z,868.97
2022-12-04T05:59:23.279Z,177.60
2022-12-04T06:01:51.311Z,215.10
2022-12-04T06:04:19.276Z,245.07
2022-12-04T06:06:47.477Z,63.87
2022-12-04T06:09:15.441Z,349.93
2022-12-04T06:11:44.005Z,91.30
2022-12-04T06:14:16.642Z,64.67
2022-12-04T06:16:46.100Z,132.33
2022-12-04T06:19:16.510Z,95.97
2022-12-04T06:21:46.487Z,94.23
2022-12-04T06:24:16.461Z,76.57
2022-12-04T06:27:11.276Z,90.20
2022-12-04T06:29:34.679Z,61.70
2022-12-04T06:32:02.636Z,61.27
2022-12-04T06:34:30.584Z,61.40
2022-12-04T06:36:58.476Z,58.20
2022-12-04T06:39:26.489Z,57.23
2022-12-04T06:41:54.394Z,57.63
2022-12-04T06:44:22.364Z,56.80
2022-12-04T06:46:54.714Z,59.07
2022-12-04T06:49:23.117Z,56.90
2022-12-04T06:51:51.097Z,57.63
2022-12-04T06:54:19.155Z,57.07
2022-12-04T06:56:47.027Z,55.57
2022-12-04T06:59:14.960Z,56.77
2022-12-04T07:01:43.034Z,53.93
2022-12-04T07:04:12.370Z,55.60
2022-12-04T07:06:40.853Z,54.37
2022-12-04T07:09:11.266Z,55.17
2022-12-04T07:11:39.846Z,53.80
2022-12-04T07:14:08.269Z,55.33
2022-12-04T07:16:40.877Z,55.80
2022-12-04T07:19:09.377Z,56.00
2022-12-04T07:21:38.755Z,55.30
2022-12-04T07:24:07.279Z,54.90
2022-12-04T07:26:35.288Z,54.90
2022-12-04T07:29:03.173Z,54.30
2022-12-04T07:31:31.405Z,53.60
2022-12-04T07:33:59.721Z,53.53
2022-12-04T07:36:28.678Z,53.60
2022-12-04T07:38:58.313Z,53.57
2022-12-04T07:41:26.294Z,52.07
2022-12-04T07:43:54.898Z,52.43
2022-12-04T07:46:27.605Z,52.00
2022-12-04T07:48:57.064Z,51.43
2022-12-04T07:51:27.014Z,50.93
2022-12-04T07:54:02.775Z,51.27
2022-12-04T07:56:31.567Z,53.33
2022-12-04T07:59:00.246Z,50.57
2022-12-04T08:01:28.745Z,50.23
2022-12-04T08:03:59.049Z,50.30
2022-12-04T08:06:28.591Z,51.87
2022-12-04T08:08:58.405Z,51.20
2022-12-04T08:11:28.182Z,49.67
2022-12-04T08:13:57.369Z,51.73
2022-12-04T08:16:26.293Z,49.37
2022-12-04T08:18:55.238Z,50.60
2022-12-04T08:21:25.253Z,49.07
2022-12-04T08:23:54.402Z,50.37
2022-12-04T08:26:27.461Z,48.87
2022-12-04T08:28:56.138Z,47.93
2022-12-04T08:31:26.978Z,47.73
2022-12-04T08:33:57.900Z,47.60
2022-12-04T08:36:26.300Z,46.90
2022-12-04T08:38:54.405Z,46.97
2022-12-04T08:41:26.305Z,46.33
2022-12-04T08:43:56.065Z,45.57
2022-12-04T08:46:26.247Z,44.77
2022-12-04T08:48:55.063Z,44.70
2022-12-04T08:51:25.699Z,43.60
2022-12-04T08:53:56.091Z,43.73
2022-12-04T08:56:26.082Z,44.37
2022-12-04T08:58:54.216Z,42.90
2022-12-04T09:01:22.179Z,44.43
2022-12-04T09:03:50.463Z,42.57
2022-12-04T09:06:19.024Z,42.83
2022-12-04T09:08:47.172Z,43.40
2022-12-04T09:11:16.960Z,41.47
2022-12-04T09:13:46.822Z,41.87
2022-12-04T09:16:17.113Z,40.63
2022-12-04T09:18:45.853Z,40.17
2022-12-04T09:21:16.659Z,40.87
2022-12-04T09:23:44.740Z,39.47
2022-12-04T09:26:20.087Z,38.80
2022-12-04T09:28:50.250Z,37.63
2022-12-04T09:31:19.249Z,37.33
2022-12-04T09:33:47.625Z,37.33
2022-12-04T09:36:17.080Z,39.13
2022-12-04T09:38:45.827Z,38.60
2022-12-04T09:41:31.585Z,38.40
2022-12-04T09:44:04.837Z,37.00
2022-12-04T09:46:37.847Z,35.70
2022-12-04T09:49:12.199Z,35.43
2022-12-04T09:51:43.291Z,34.50
2022-12-04T09:54:15.346Z,34.40
2022-12-04T09:56:50.326Z,35.27
2022-12-04T09:59:23.059Z,34.30
2022-12-04T10:01:57.072Z,35.57
2022-12-04T10:04:25.824Z,35.00
2022-12-04T10:07:02.151Z,34.90
2022-12-04T10:09:37.747Z,34.70
2022-12-04T10:12:17.601Z,34.23
2022-12-04T10:15:11.245Z,33.43
2022-12-04T10:17:58.489Z,32.50
2022-12-04T10:20:49.105Z,33.80
2022-12-04T10:23:24.979Z,30.73
2022-12-04T10:25:55.998Z,31.10
2022-12-04T10:28:30.748Z,31.03
2022-12-04T10:31:03.445Z,30.17
2022-12-04T10:33:38.939Z,29.47
2022-12-04T10:36:08.199Z,30.47
2022-12-04T10:38:41.546Z,30.20
2022-12-04T10:41:16.528Z,34.60
2022-12-04T10:43:46.078Z,29.57
2022-12-04T10:46:19.894Z,30.17
2022-12-04T10:48:52.205Z,30.53
2022-12-04T10:51:22.993Z,29.17
2022-12-04T10:53:52.202Z,29.10
2022-12-04T10:56:22.170Z,28.77
2022-12-04T10:59:00.413Z,27.90
2022-12-04T11:01:32.122Z,27.70
2022-12-04T11:04:05.016Z,29.70
2022-12-04T11:06:33.745Z,28.53
2022-12-04T11:09:03.715Z,27.80
2022-12-04T11:11:34.321Z,27.10
2022-12-04T11:14:04.517Z,28.07
2022-12-04T11:16:37.930Z,27.50
2022-12-04T11:19:20.535Z,27.80
2022-12-04T11:21:49.174Z,25.97
2022-12-04T11:24:23.296Z,25.80
2022-12-04T11:26:53.186Z,25.57
2022-12-04T11:29:26.280Z,27.30
2022-12-04T11:31:58.660Z,24.87
2022-12-04T11:34:36.434Z,25.90
2022-12-04T11:37:04.967Z,25.00
2022-12-04T11:39:37.868Z,25.20
2022-12-04T11:42:16.639Z,25.43
2022-12-04T11:44:52.707Z,25.37
2022-12-04T11:47:26.277Z,25.80
2022-12-04T11:50:03.992Z,25.27
2022-12-04T11:52:51.288Z,24.87
2022-12-04T11:55:29.147Z,24.37
2022-12-04T11:58:16.942Z,24.10
2022-12-04T12:00:52.003Z,24.33
2022-12-04T12:03:28.345Z,23.27
2022-12-04T12:06:18.287Z,23.00
2022-12-04T12:08:58.157Z,20.30
2022-12-04T12:11:31.791Z,20.80
2022-12-04T12:14:09.441Z,20.53
2022-12-04T12:16:51.668Z,20.10
2022-12-04T12:19:39.359Z,18.40
2022-12-04T12:22:14.756Z,17.90
2022-12-04T12:24:51.531Z,18.23
2022-12-04T12:27:37.475Z,18.50
2022-12-04T12:30:10.686Z,18.73
2022-12-04T12:32:59.512Z,18.37
2022-12-04T12:35:34.139Z,18.37
2022-12-04T12:38:04.072Z,19.33
2022-12-04T12:40:36.471Z,19.17
2022-12-04T12:43:08.948Z,19.00
2022-12-04T12:45:45.126Z,20.07
2022-12-04T12:48:26.838Z,19.40
2022-12-04T12:51:28.539Z,20.03
2022-12-04T12:53:53.614Z,20.07
2022-12-04T12:56:34.410Z,20.37
2022-12-04T12:59:07.386Z,20.80
2022-12-04T13:01:44.826Z,20.00
2022-12-04T13:04:20.796Z,20.13
2022-12-04T13:06:55.255Z,20.37
2022-12-04T13:09:29.960Z,20.13
2022-12-04T13:12:02.785Z,21.00
2022-12-04T13:14:30.763Z,20.73
2022-12-04T13:17:02.585Z,20.50
2022-12-04T13:19:35.471Z,20.97
2022-12-04T13:22:17.678Z,20.87
2022-12-04T13:25:16.947Z,21.33
2022-12-04T13:27:55.312Z,20.83
2022-12-04T13:30:25.463Z,19.97
2022-12-04T13:33:15.269Z,20.90
2022-12-04T13:36:01.765Z,18.00
2022-12-04T13:38:41.661Z,17.50
2022-12-04T13:41:12.013Z,18.13
2022-12-04T13:43:47.394Z,18.37
2022-12-04T13:46:31.089Z,20.90
2022-12-04T13:49:11.008Z,20.43
2022-12-04T13:51:41.154Z,21.73
2022-12-04T13:54:29.344Z,21.93
2022-12-04T13:56:59.353Z,23.63
2022-12-04T13:59:39.872Z,23.27
2022-12-04T14:02:25.543Z,24.27
2022-12-04T14:04:57.553Z,22.93
2022-12-04T14:07:30.014Z,23.77
2022-12-04T14:10:04.768Z,23.27
2022-12-04T14:12:37.690Z,25.50
2022-12-04T14:15:08.918Z,24.57
2022-12-04T14:17:39.569Z,25.93
2022-12-04T14:20:22.763Z,26.90
2022-12-04T14:22:50.686Z,27.37
2022-12-04T14:25:36.001Z,27.80
2022-12-04T14:28:25.232Z,27.90
2022-12-04T14:31:07.514Z,28.43
2022-12-04T14:33:43.859Z,30.30
2022-12-04T14:36:19.295Z,31.43
2022-12-04T14:38:49.618Z,31.43
2022-12-04T14:41:27.403Z,32.70
2022-12-04T14:43:56.847Z,31.30
2022-12-04T14:46:32.593Z,32.73
2022-12-04T14:49:11.012Z,33.53
2022-12-04T14:51:46.304Z,33.40
2022-12-04T14:54:23.457Z,33.80
2022-12-04T14:57:12.169Z,35.67
2022-12-04T14:59:44.080Z,35.97
2022-12-04T15:02:14.878Z,36.90
2022-12-04T15:04:46.509Z,35.60
2022-12-04T15:07:22.050Z,38.50
2022-12-04T15:10:12.919Z,36.53
2022-12-04T15:12:47.442Z,38.10
2022-12-04T15:15:25.130Z,39.07
2022-12-04T15:18:05.324Z,39.67
2022-12-04T15:20:39.217Z,39.13
2022-12-04T15:23:07.776Z,38.50
2022-12-04T15:25:42.250Z,39.13
2022-12-04T15:28:15.395Z,38.20
2022-12-04T15:30:45.016Z,38.47
2022-12-04T15:33:21.186Z,38.67
2022-12-04T15:35:53.778Z,41.73
2022-12-04T15:38:22.382Z,41.27
2022-12-04T15:40:53.120Z,41.87
2022-12-04T15:43:30.173Z,42.83
2022-12-04T15:45:59.097Z,45.50
2022-12-04T15:48:28.599Z,46.00
2022-12-04T15:51:01.977Z,42.03
2022-12-04T15:53:33.622Z,43.93
2022-12-04T15:56:04.329Z,40.83
2022-12-04T15:58:35.231Z,40.93
2022-12-04T16:01:06.361Z,42.13
2022-12-04T16:03:46.475Z,40.83
2022-12-04T16:06:20.512Z,44.10
2022-12-04T16:08:51.011Z,41.40
2022-12-04T16:11:31.063Z,41.50
2022-12-04T16:14:19.936Z,42.40
2022-12-04T16:16:49.881Z,41.73
2022-12-04T16:19:30.990Z,41.93
2022-12-04T16:21:59.730Z,43.77
2022-12-04T16:24:27.984Z,42.87
2022-12-04T16:26:58.241Z,43.33
2022-12-04T16:29:27.596Z,43.57
2022-12-04T16:32:01.246Z,43.97
2022-12-04T16:34:31.312Z,44.77
2022-12-04T16:37:00.410Z,43.97
2022-12-04T16:39:28.407Z,45.43
2022-12-04T16:41:56.353Z,45.73
2022-12-04T16:44:24.238Z,46.07
2022-12-04T16:46:53.560Z,45.93
2022-12-04T16:49:21.574Z,47.50
2022-12-04T16:51:50.729Z,47.37
2022-12-04T16:54:18.826Z,46.27
2022-12-04T16:56:46.708Z,47.07
2022-12-04T16:59:14.739Z,47.83
2022-12-04T17:01:46.395Z,47.53
2022-12-04T17:04:58.581Z,47.30
2022-12-04T17:07:26.615Z,46.97
2022-12-04T17:09:54.571Z,50.63
2022-12-04T17:12:22.473Z,47.90
2022-12-04T17:14:50.394Z,48.97
2022-12-04T17:17:18.270Z,48.80
2022-12-04T17:19:46.621Z,49.13
2022-12-04T17:22:16.426Z,48.67
2022-12-04T17:24:50.264Z,46.97
2022-12-04T17:27:22.835Z,48.67
2022-12-04T17:29:50.821Z,48.47
2022-12-04T17:32:18.747Z,48.83
2022-12-04T17:34:46.699Z,49.50
2022-12-04T17:37:15.968Z,49.07
2022-12-04T17:39:43.934Z,49.90
2022-12-04T17:42:11.834Z,50.03
2022-12-04T17:44:39.779Z,50.33
2022-12-04T17:47:07.779Z,50.83
2022-12-04T17:49:35.904Z,49.57
2022-12-04T17:52:03.947Z,50.43
2022-12-04T17:54:33.336Z,49.17
2022-12-04T17:57:01.275Z,51.20
2022-12-04T17:59:29.355Z,51.53
2022-12-04T18:01:57.276Z,50.90
2022-12-04T18:04:25.300Z,50.63
2022-12-04T18:06:53.712Z,51.53
2022-12-04T18:09:21.835Z,50.87
2022-12-04T18:11:51.184Z,50.93
2022-12-04T18:14:22.159Z,50.80
2022-12-04T18:16:53.112Z,51.77
2022-12-04T18:19:22.459Z,51.50
2022-12-04T18:21:51.203Z,50.67
2022-12-04T18:24:19.475Z,52.20
2022-12-04T18:26:49.359Z,52.37
2022-12-04T18:29:21.041Z,51.17
2022-12-04T18:31:51.322Z,52.30
2022-12-04T18:34:22.206Z,54.23
2022-12-04T18:36:50.678Z,52.77
2022-12-04T18:39:21.364Z,52.43
2022-12-04T18:41:50.192Z,53.00
2022-12-04T18:44:22.783Z,52.27
2022-12-04T18:46:50.916Z,52.40
2022-12-04T18:49:18.808Z,53.57
2022-12-04T18:51:50.057Z,52.23
2022-12-04T18:54:21.263Z,51.83
2022-12-04T18:56:49.399Z,51.53
2022-12-04T18:59:21.725Z,52.10
2022-12-04T19:01:51.018Z,51.77
2022-12-04T19:04:22.091Z,52.97
2022-12-04T19:06:52.328Z,52.97
2022-12-04T19:09:40.740Z,52.80
2022-12-04T19:12:11.965Z,54.73
2022-12-04T19:14:41.534Z,51.63
2022-12-04T19:17:09.540Z,54.00
2022-12-04T19:19:37.582Z,52.13
2022-12-04T19:22:05.622Z,53.97
2022-12-04T19:24:33.853Z,51.13
2022-12-04T19:27:10.033Z,51.00
2022-12-04T19:29:38.294Z,51.07
2022-12-04T19:32:08.386Z,53.33
2022-12-04T19:34:36.840Z,52.87
2022-12-04T19:37:04.775Z,52.10
2022-12-04T19:39:32.704Z,53.63
2022-12-04T19:42:00.653Z,53.13
2022-12-04T19:47:18.244Z,54.33
2022-12-04T19:49:46.607Z,53.10
2022-12-04T19:52:14.790Z,52.23
2022-12-04T19:54:42.934Z,53.17
2022-12-04T19:57:11.224Z,54.87
2022-12-04T19:59:44.515Z,52.53
2022-12-04T20:02:14.684Z,51.60
2022-12-04T20:04:44.243Z,56.37
2022-12-04T20:07:12.360Z,52.70
2022-12-04T20:09:40.377Z,51.57
2022-12-04T20:12:08.662Z,53.17
2022-12-04T20:14:36.654Z,52.97
2022-12-04T20:17:05.292Z,54.10
2022-12-04T20:19:33.394Z,54.13
2022-12-04T20:22:02.676Z,53.90
2022-12-04T20:24:30.591Z,51.80
2022-12-04T20:26:58.572Z,52.20
2022-12-04T20:29:26.498Z,53.70
2022-12-04T20:31:54.406Z,52.77
2022-12-04T20:34:22.434Z,52.20
2022-12-04T20:36:50.687Z,53.10
2022-12-04T20:39:20.960Z,54.40
2022-12-04T20:41:49.328Z,54.70
2022-12-04T20:44:19.344Z,53.07
2022-12-04T20:46:48.343Z,52.43
2022-12-04T20:49:22.586Z,53.80
2022-12-04T20:51:52.167Z,53.57
2022-12-04T20:54:23.624Z,54.97
2022-12-04T20:56:53.356Z,52.40
2022-12-04T20:59:23.898Z,55.77
2022-12-04T21:01:52.955Z,55.17
2022-12-04T21:04:21.393Z,55.07
2022-12-04T21:06:49.341Z,55.70
2022-12-04T21:09:19.267Z,54.77
2022-12-04T21:11:50.388Z,56.10
2022-12-04T21:14:38.046Z,55.37
2022-12-04T21:17:07.729Z,53.70
2022-12-04T21:19:36.119Z,56.27
2022-12-04T21:22:04.121Z,56.77
2022-12-04T21:24:38.023Z,54.53
2022-12-04T21:27:09.177Z,57.30
2022-12-04T21:29:37.944Z,57.30
2022-12-04T21:32:07.937Z,56.73
2022-12-04T21:34:36.374Z,56.27
2022-12-04T21:37:04.577Z,55.80
2022-12-04T21:39:32.740Z,56.53
2022-12-04T21:42:18.272Z,55.97
2022-12-04T21:44:47.640Z,55.90
2022-12-04T21:47:15.525Z,55.80
2022-12-04T21:49:43.489Z,55.80
2022-12-04T21:52:11.385Z,56.07
2022-12-04T21:54:39.351Z,56.10
2022-12-04T21:57:07.335Z,54.73
2022-12-04T21:59:35.282Z,56.33
2022-12-04T22:02:05.176Z,54.27
2022-12-04T22:04:33.183Z,55.67
2022-12-04T22:07:01.081Z,54.63
2022-12-04T22:09:29.116Z,55.63
2022-12-04T22:11:57.077Z,55.83
2022-12-04T22:14:25.053Z,55.57
2022-12-04T22:16:54.327Z,55.73
2022-12-04T22:19:24.196Z,54.70
2022-12-04T22:21:52.173Z,55.43
2022-12-04T22:24:20.097Z,56.63
2022-12-04T22:26:48.043Z,56.27
2022-12-04T22:29:48.574Z,56.93
2022-12-04T22:32:03.922Z,57.10
2022-12-04T22:34:33.268Z,56.37
2022-12-04T22:37:01.238Z,57.17
2022-12-04T22:39:29.185Z,55.80
2022-12-04T22:41:57.106Z,56.60
2022-12-04T22:44:25.109Z,55.00
2022-12-04T22:46:53.114Z,55.90
2022-12-04T22:49:21.288Z,55.07
2022-12-04T22:51:50.659Z,57.33
2022-12-04T22:54:18.598Z,53.60
2022-12-04T22:56:46.543Z,55.90
2022-12-04T22:59:14.516Z,53.03
2022-12-04T23:01:42.435Z,57.20
2022-12-04T23:04:11.413Z,54.97
2022-12-04T23:06:39.662Z,55.30
2022-12-04T23:09:12.692Z,54.80
2022-12-04T23:11:40.829Z,53.20
2022-12-04T23:14:11.790Z,53.90
2022-12-04T23:16:41.011Z,54.80
2022-12-04T23:19:12.019Z,54.53
2022-12-04T23:21:40.655Z,60.90
2022-12-04T23:24:10.664Z,57.53
2022-12-04T23:26:41.705Z,56.93
2022-12-04T23:29:29.656Z,57.03
2022-12-04T23:31:57.831Z,56.67
2022-12-04T23:34:25.985Z,56.43
2022-12-04T23:36:53.905Z,81.77
2022-12-04T23:39:23.209Z,80.97
2022-12-04T23:41:51.132Z,68.30
2022-12-04T23:44:19.117Z,75.77
2022-12-04T23:46:47.082Z,114.10
2022-12-04T23:49:14.990Z,200.40
2022-12-04T23:51:42.949Z,72.83
2022-12-04T23:54:11.320Z,56.63
2022-12-04T23:56:40.825Z,193.23
2022-12-04T23:59:08.708Z,59.10
